createdAt,value
2017-09-27T00:00:22.564Z,99.90
2017-09-27T00:02:50.049Z,99.90
2017-09-27T00:05:18.305Z,99.90
2017-09-27T00:07:45.781Z,99.90
2017-09-27T00:10:14.045Z,99.90
2017-09-27T00:12:41.521Z,99.90
2017-09-27T00:15:09.769Z,99.90
2017-09-27T00:17:37.262Z,99.90
2017-09-27T00:20:04.742Z,99.90
2017-09-27T00:22:32.436Z,99.90
2017-09-27T00:25:00.161Z,99.90
2017-09-27T00:27:27.645Z,99.90
2017-09-27T00:29:55.143Z,99.90
2017-09-27T00:32:22.620Z,99.90
2017-09-27T00:34:50.094Z,99.90
2017-09-27T00:37:17.592Z,99.90
2017-09-27T00:39:45.069Z,99.90
2017-09-27T00:42:12.545Z,99.90
2017-09-27T00:44:40.802Z,99.90
2017-09-27T00:47:09.054Z,99.90
2017-09-27T00:49:36.548Z,99.90
2017-09-27T00:52:05.007Z,99.90
2017-09-27T00:54:32.485Z,99.90
2017-09-27T00:57:00.745Z,99.90
2017-09-27T00:59:28.645Z,99.90
2017-09-27T01:01:56.145Z,99.90
2017-09-27T01:04:23.637Z,99.90
2017-09-27T01:06:52.238Z,99.90
2017-09-27T01:09:19.733Z,99.90
2017-09-27T01:11:47.216Z,99.90
2017-09-27T01:14:14.909Z,99.90
2017-09-27T01:16:42.409Z,99.90
2017-09-27T01:19:09.889Z,99.90
2017-09-27T01:21:37.404Z,99.90
2017-09-27T01:24:04.878Z,99.90
2017-09-27T01:26:32.755Z,99.90
2017-09-27T01:29:01.277Z,99.90
2017-09-27T01:31:29.900Z,99.90
2017-09-27T01:33:57.402Z,99.90
2017-09-27T01:36:24.902Z,99.90
2017-09-27T01:38:52.393Z,99.90
2017-09-27T01:41:19.885Z,99.90
2017-09-27T01:43:48.469Z,99.90
2017-09-27T01:46:16.732Z,99.90
2017-09-27T01:48:44.206Z,99.90
2017-09-27T01:51:12.456Z,99.90
2017-09-27T01:53:39.973Z,99.90
2017-09-27T01:56:07.448Z,99.90
2017-09-27T01:58:34.921Z,99.90
2017-09-27T02:01:02.425Z,99.90
2017-09-27T02:03:29.909Z,99.90
2017-09-27T02:05:57.399Z,99.90
2017-09-27T02:08:24.905Z,99.90
2017-09-27T02:10:52.385Z,99.90
2017-09-27T02:13:19.861Z,99.90
2017-09-27T02:15:47.360Z,99.90
2017-09-27T02:18:15.598Z,99.90
2017-09-27T02:20:43.076Z,99.90
2017-09-27T02:23:10.578Z,99.90
2017-09-27T02:25:38.348Z,99.90
2017-09-27T02:28:05.822Z,99.90
2017-09-27T02:30:33.325Z,99.90
2017-09-27T02:33:01.570Z,99.90
2017-09-27T02:35:29.053Z,99.90
2017-09-27T02:37:57.317Z,99.90
2017-09-27T02:40:24.797Z,99.90
2017-09-27T02:42:53.042Z,99.90
2017-09-27T02:45:20.553Z,99.90
2017-09-27T02:47:48.068Z,99.90
2017-09-27T02:50:15.524Z,99.90
2017-09-27T02:52:43.022Z,99.90
2017-09-27T02:55:10.506Z,99.90
2017-09-27T02:57:37.985Z,99.90
2017-09-27T03:00:05.485Z,99.90
2017-09-27T03:02:32.960Z,99.90
2017-09-27T03:05:00.441Z,99.90
2017-09-27T03:07:27.928Z,99.90
2017-09-27T03:09:56.165Z,99.90
2017-09-27T03:12:23.637Z,99.90
2017-09-27T03:14:51.125Z,99.90
2017-09-27T03:17:19.361Z,99.90
2017-09-27T03:19:46.837Z,99.90
2017-09-27T03:22:14.336Z,99.90
2017-09-27T03:24:41.809Z,99.90
2017-09-27T03:27:09.282Z,99.90
2017-09-27T03:29:37.541Z,99.90
2017-09-27T03:32:05.014Z,99.90
2017-09-27T03:34:32.766Z,99.90
2017-09-27T03:37:00.262Z,99.90
2017-09-27T03:39:27.733Z,99.90
2017-09-27T03:41:55.969Z,99.90
2017-09-27T03:44:23.465Z,99.90
2017-09-27T03:46:51.705Z,99.90
2017-09-27T03:49:19.177Z,99.90
2017-09-27T03:51:46.674Z,99.90
2017-09-27T03:54:14.160Z,99.90
2017-09-27T03:56:41.633Z,99.90
2017-09-27T03:59:09.133Z,99.90
2017-09-27T04:01:37.653Z,99.90
2017-09-27T04:04:05.164Z,99.90
2017-09-27T04:06:32.653Z,99.90
2017-09-27T04:09:00.129Z,99.90
2017-09-27T04:11:27.600Z,99.90
2017-09-27T04:13:55.100Z,99.90
2017-09-27T04:16:23.341Z,99.90
2017-09-27T04:18:50.817Z,99.90
2017-09-27T04:21:18.308Z,99.90
2017-09-27T04:23:45.781Z,99.90
2017-09-27T04:26:13.260Z,99.90
2017-09-27T04:28:40.753Z,99.90
2017-09-27T04:31:08.226Z,99.90
2017-09-27T04:33:36.645Z,99.90
2017-09-27T04:36:04.145Z,99.90
2017-09-27T04:38:33.116Z,99.90
2017-09-27T04:41:00.601Z,99.90
2017-09-27T04:43:28.865Z,99.90
2017-09-27T04:45:56.338Z,99.90
2017-09-27T04:48:24.573Z,99.90
2017-09-27T04:50:52.077Z,99.90
2017-09-27T04:53:20.321Z,99.90
2017-09-27T04:55:47.801Z,99.90
2017-09-27T04:58:16.057Z,99.90
2017-09-27T05:00:43.529Z,99.90
2017-09-27T05:03:11.773Z,99.90
2017-09-27T05:05:39.356Z,99.90
2017-09-27T05:08:06.813Z,99.90
2017-09-27T05:10:34.290Z,99.90
2017-09-27T05:13:02.565Z,99.90
2017-09-27T05:15:30.808Z,99.90
2017-09-27T05:17:58.533Z,99.90
2017-09-27T05:20:26.025Z,99.90
2017-09-27T05:22:53.509Z,99.90
2017-09-27T05:25:21.745Z,99.90
2017-09-27T05:27:49.236Z,99.90
2017-09-27T05:30:17.473Z,99.90
2017-09-27T05:32:45.217Z,99.90
2017-09-27T05:35:12.717Z,99.90
2017-09-27T05:37:40.193Z,99.90
2017-09-27T05:40:08.437Z,99.90
2017-09-27T05:42:35.937Z,99.90
2017-09-27T05:45:04.182Z,99.90
2017-09-27T05:47:31.657Z,99.90
2017-09-27T05:49:59.917Z,99.90
2017-09-27T05:52:27.394Z,99.90
2017-09-27T05:54:55.636Z,99.90
2017-09-27T05:57:23.129Z,99.90
2017-09-27T05:59:51.373Z,99.90
2017-09-27T06:02:18.853Z,99.90
2017-09-27T06:04:47.117Z,99.90
2017-09-27T06:07:14.601Z,99.90
2017-09-27T06:09:42.078Z,99.90
2017-09-27T06:12:09.573Z,99.90
2017-09-27T06:14:37.049Z,99.90
2017-09-27T06:17:04.526Z,99.90
2017-09-27T06:19:32.793Z,99.90
2017-09-27T06:22:01.037Z,99.90
2017-09-27T06:24:28.517Z,99.90
2017-09-27T06:26:56.008Z,99.90
2017-09-27T06:29:23.492Z,99.90
2017-09-27T06:31:50.972Z,99.90
2017-09-27T06:34:18.477Z,99.90
2017-09-27T06:36:45.951Z,99.90
2017-09-27T06:39:13.430Z,99.90
2017-09-27T06:41:40.934Z,99.90
2017-09-27T06:44:09.178Z,99.90
2017-09-27T06:46:36.653Z,99.90
2017-09-27T06:49:04.921Z,99.90
2017-09-27T06:51:32.393Z,99.90
2017-09-27T06:54:00.637Z,99.90
2017-09-27T06:56:28.132Z,99.90
2017-09-27T06:58:56.374Z,99.90
2017-09-27T07:01:23.850Z,99.90
2017-09-27T07:03:52.109Z,99.90
2017-09-27T07:06:19.577Z,99.90
2017-09-27T07:08:47.050Z,99.90
2017-09-27T07:11:15.317Z,99.90
2017-09-27T07:13:43.566Z,99.90
2017-09-27T07:16:11.041Z,99.90
2017-09-27T07:18:38.533Z,99.90
2017-09-27T07:21:06.011Z,99.90
2017-09-27T07:23:33.485Z,99.90
2017-09-27T07:26:00.977Z,99.90
2017-09-27T07:28:29.218Z,99.90
2017-09-27T07:30:56.693Z,99.90
2017-09-27T07:33:24.194Z,99.90
2017-09-27T07:35:52.842Z,99.90
2017-09-27T07:38:20.325Z,99.90
2017-09-27T07:40:48.632Z,99.90
2017-09-27T07:43:16.118Z,99.90
2017-09-27T07:45:43.589Z,99.90
2017-09-27T07:48:11.095Z,99.90
2017-09-27T07:50:38.577Z,99.90
2017-09-27T07:53:06.058Z,99.90
2017-09-27T07:55:33.556Z,99.90
2017-09-27T07:58:01.037Z,99.90
2017-09-27T08:00:28.518Z,99.90
2017-09-27T08:02:56.021Z,99.90
2017-09-27T08:05:23.505Z,99.90
2017-09-27T08:07:50.990Z,99.90
2017-09-27T08:10:18.494Z,99.90
2017-09-27T08:12:46.004Z,99.90
2017-09-27T08:15:13.494Z,99.90
2017-09-27T08:17:41.778Z,99.90
2017-09-27T08:20:10.030Z,99.90
2017-09-27T08:22:38.294Z,99.90
2017-09-27T08:25:05.801Z,99.90
2017-09-27T08:27:33.297Z,99.90
2017-09-27T08:30:00.790Z,99.90
2017-09-27T08:32:29.058Z,99.90
2017-09-27T08:34:56.538Z,99.90
2017-09-27T08:37:24.789Z,99.90
2017-09-27T08:39:52.306Z,99.90
2017-09-27T08:42:19.801Z,99.90
2017-09-27T08:44:47.289Z,99.90
2017-09-27T08:47:14.809Z,99.90
2017-09-27T08:49:43.305Z,99.90
2017-09-27T08:52:11.573Z,99.90
2017-09-27T08:54:39.082Z,99.90
2017-09-27T08:57:06.574Z,99.90
2017-09-27T08:59:34.064Z,99.90
2017-09-27T09:02:02.343Z,99.90
2017-09-27T09:04:29.822Z,99.90
2017-09-27T09:06:57.305Z,99.90
2017-09-27T09:09:25.046Z,99.90
2017-09-27T09:11:52.524Z,99.90
2017-09-27T09:14:20.014Z,99.90
2017-09-27T09:16:47.527Z,99.90
2017-09-27T09:19:15.027Z,99.90
2017-09-27T09:21:42.517Z,99.90
2017-09-27T09:24:10.021Z,99.90
2017-09-27T09:26:37.506Z,99.40
2017-09-27T09:29:05.757Z,99.90
2017-09-27T09:31:33.270Z,99.90
2017-09-27T09:34:00.969Z,99.90
2017-09-27T09:36:28.457Z,99.90
2017-09-27T09:38:57.102Z,97.50
2017-09-27T09:41:24.589Z,97.70
2017-09-27T09:43:52.074Z,98.00
2017-09-27T09:46:20.361Z,99.90
2017-09-27T09:48:47.861Z,99.90
2017-09-27T09:51:15.348Z,99.90
2017-09-27T09:53:42.859Z,99.90
2017-09-27T09:56:10.373Z,99.90
2017-09-27T09:58:38.643Z,94.50
2017-09-27T10:01:06.922Z,97.20
2017-09-27T10:03:35.176Z,95.80
2017-09-27T10:06:02.665Z,95.80
2017-09-27T10:08:30.182Z,96.10
2017-09-27T10:10:57.669Z,96.60
2017-09-27T10:13:25.933Z,93.50
2017-09-27T10:15:53.450Z,93.50
2017-09-27T10:18:20.942Z,95.40
2017-09-27T10:20:48.438Z,95.20
2017-09-27T10:23:15.949Z,94.10
2017-09-27T10:25:43.445Z,92.80
2017-09-27T10:28:11.696Z,91.10
2017-09-27T10:30:39.213Z,91.10
2017-09-27T10:33:06.701Z,95.60
2017-09-27T10:35:34.198Z,93.60
2017-09-27T10:38:01.715Z,92.20
2017-09-27T10:40:29.200Z,92.10
2017-09-27T10:42:57.550Z,89.10
2017-09-27T10:45:25.053Z,86.20
2017-09-27T10:47:52.538Z,89.10
2017-09-27T10:50:20.030Z,86.20
2017-09-27T10:52:47.570Z,84.30
2017-09-27T10:55:15.062Z,90.40
2017-09-27T10:57:43.338Z,82.30
2017-09-27T11:00:12.593Z,85.60
2017-09-27T11:02:40.077Z,85.70
2017-09-27T11:05:07.566Z,87.90
2017-09-27T11:07:35.830Z,92.10
2017-09-27T11:10:03.321Z,92.10
2017-09-27T11:12:30.812Z,90.10
2017-09-27T11:14:58.322Z,87.80
2017-09-27T11:17:25.810Z,90.60
2017-09-27T11:19:53.305Z,83.10
2017-09-27T11:22:20.806Z,83.40
2017-09-27T11:24:48.313Z,78.20
2017-09-27T11:27:15.804Z,75.80
2017-09-27T11:29:43.345Z,73.70
2017-09-27T11:32:11.593Z,71.90
2017-09-27T11:34:39.087Z,71.20
2017-09-27T11:37:07.365Z,68.10
2017-09-27T11:39:35.622Z,62.90
2017-09-27T11:42:03.110Z,62.80
2017-09-27T11:44:30.616Z,63.20
2017-09-27T11:46:58.101Z,62.80
2017-09-27T11:49:26.354Z,60.10
2017-09-27T11:51:53.865Z,60.10
2017-09-27T11:54:21.569Z,65.60
2017-09-27T11:56:49.061Z,65.20
2017-09-27T11:59:17.331Z,66.70
2017-09-27T12:01:45.581Z,64.80
2017-09-27T12:04:13.070Z,64.80
2017-09-27T12:06:41.345Z,60.60
2017-09-27T12:09:09.594Z,61.70
2017-09-27T12:11:37.081Z,61.70
2017-09-27T12:14:05.357Z,61.30
2017-09-27T12:16:32.848Z,61.30
2017-09-27T12:19:00.334Z,60.40
2017-09-27T12:21:27.841Z,61.30
2017-09-27T12:23:55.368Z,61.70
2017-09-27T12:26:22.861Z,61.00
2017-09-27T12:28:50.374Z,62.30
2017-09-27T12:31:17.858Z,61.40
2017-09-27T12:33:46.136Z,67.20
2017-09-27T12:36:14.421Z,68.50
2017-09-27T12:38:41.905Z,69.20
2017-09-27T12:41:09.389Z,65.40
2017-09-27T12:43:36.889Z,66.40
2017-09-27T12:46:05.141Z,64.80
2017-09-27T12:48:32.618Z,64.70
2017-09-27T12:51:00.885Z,71.20
2017-09-27T12:53:29.131Z,72.70
2017-09-27T12:55:56.638Z,72.70
2017-09-27T12:58:24.138Z,70.30
2017-09-27T13:00:51.617Z,66.90
2017-09-27T13:03:19.110Z,70.40
2017-09-27T13:05:46.623Z,66.30
2017-09-27T13:08:14.110Z,66.40
2017-09-27T13:10:42.360Z,60.50
2017-09-27T13:13:09.870Z,60.40
2017-09-27T13:15:37.366Z,60.30
2017-09-27T13:18:04.846Z,61.10
2017-09-27T13:20:32.349Z,57.20
2017-09-27T13:22:59.838Z,57.30
2017-09-27T13:25:27.325Z,58.00
2017-09-27T13:27:55.589Z,54.90
2017-09-27T13:30:23.075Z,54.70
2017-09-27T13:32:50.557Z,54.90
2017-09-27T13:35:18.061Z,55.80
2017-09-27T13:37:45.550Z,53.70
2017-09-27T13:40:13.033Z,58.50
2017-09-27T13:42:40.533Z,59.90
2017-09-27T13:45:08.025Z,62.40
2017-09-27T13:47:35.509Z,61.90
2017-09-27T13:50:03.010Z,64.80
2017-09-27T13:52:31.265Z,67.20
2017-09-27T13:54:58.745Z,66.40
2017-09-27T13:57:27.074Z,70.00
2017-09-27T13:59:54.557Z,69.90
2017-09-27T14:02:22.041Z,69.30
2017-09-27T14:04:50.310Z,70.50
2017-09-27T14:07:18.565Z,73.00
2017-09-27T14:09:46.050Z,72.90
2017-09-27T14:12:14.318Z,72.60
2017-09-27T14:14:42.565Z,72.40
2017-09-27T14:17:10.041Z,72.40
2017-09-27T14:19:37.541Z,73.80
2017-09-27T14:22:05.027Z,74.00
2017-09-27T14:24:32.725Z,74.10
2017-09-27T14:27:00.225Z,76.40
2017-09-27T14:29:27.709Z,76.40
2017-09-27T14:31:55.195Z,78.90
2017-09-27T14:34:22.698Z,81.80
2017-09-27T14:36:50.187Z,82.70
2017-09-27T14:39:17.690Z,83.90
2017-09-27T14:41:45.201Z,82.00
2017-09-27T14:44:12.685Z,81.20
2017-09-27T14:46:40.166Z,83.50
2017-09-27T14:49:07.673Z,84.90
2017-09-27T14:51:35.151Z,84.80
2017-09-27T14:54:02.634Z,86.10
2017-09-27T14:56:30.913Z,85.20
2017-09-27T14:58:58.394Z,85.20
2017-09-27T15:01:25.876Z,85.50
2017-09-27T15:03:53.406Z,85.00
2017-09-27T15:06:20.880Z,85.50
2017-09-27T15:08:48.357Z,85.50
2017-09-27T15:11:15.861Z,86.60
2017-09-27T15:13:43.381Z,83.50
2017-09-27T15:16:10.861Z,85.30
2017-09-27T15:18:39.137Z,88.00
2017-09-27T15:21:07.385Z,84.60
2017-09-27T15:23:34.870Z,84.50
2017-09-27T15:26:03.143Z,88.20
2017-09-27T15:28:31.388Z,87.90
2017-09-27T15:30:59.638Z,85.50
2017-09-27T15:33:27.141Z,85.40
2017-09-27T15:35:54.617Z,89.40
2017-09-27T15:38:22.863Z,89.60
2017-09-27T15:40:50.362Z,89.50
2017-09-27T15:43:17.846Z,91.20
2017-09-27T15:45:45.325Z,91.20
2017-09-27T15:48:12.821Z,91.60
2017-09-27T15:50:41.075Z,90.20
2017-09-27T15:53:08.551Z,90.30
2017-09-27T15:55:36.815Z,90.80
2017-09-27T15:58:05.062Z,91.00
2017-09-27T16:00:32.550Z,90.70
2017-09-27T16:03:00.823Z,90.90
2017-09-27T16:05:29.069Z,91.50
2017-09-27T16:07:56.809Z,91.50
2017-09-27T16:10:24.319Z,92.50
2017-09-27T16:12:52.568Z,92.60
2017-09-27T16:15:20.049Z,92.60
2017-09-27T16:17:47.556Z,93.40
2017-09-27T16:20:15.037Z,93.40
2017-09-27T16:22:42.514Z,93.60
2017-09-27T16:25:10.061Z,94.50
2017-09-27T16:27:37.533Z,94.40
2017-09-27T16:30:05.017Z,95.00
2017-09-27T16:32:32.517Z,94.80
2017-09-27T16:35:01.134Z,95.60
2017-09-27T16:37:29.390Z,97.40
2017-09-27T16:39:56.896Z,97.40
2017-09-27T16:42:24.381Z,98.40
2017-09-27T16:44:51.853Z,98.00
2017-09-27T16:47:19.353Z,98.80
2017-09-27T16:49:47.598Z,99.90
2017-09-27T16:52:15.078Z,99.90
2017-09-27T16:54:43.601Z,99.90
2017-09-27T16:57:13.363Z,99.90
2017-09-27T16:59:40.853Z,99.90
2017-09-27T17:02:08.358Z,99.90
2017-09-27T17:04:35.837Z,99.90
2017-09-27T17:07:03.329Z,99.90
2017-09-27T17:09:30.822Z,99.90
2017-09-27T17:11:58.297Z,99.90
2017-09-27T17:14:25.782Z,99.90
2017-09-27T17:16:54.058Z,99.90
2017-09-27T17:19:21.558Z,99.90
2017-09-27T17:21:49.081Z,99.90
2017-09-27T17:24:16.627Z,99.90
2017-09-27T17:26:44.873Z,99.90
2017-09-27T17:29:12.396Z,99.90
2017-09-27T17:31:39.947Z,99.90
2017-09-27T17:34:07.471Z,99.90
2017-09-27T17:36:35.754Z,99.90
2017-09-27T17:39:04.087Z,99.90
2017-09-27T17:41:31.598Z,99.90
2017-09-27T17:43:59.118Z,99.90
2017-09-27T17:46:26.663Z,99.90
2017-09-27T17:48:54.174Z,99.90
2017-09-27T17:51:21.974Z,99.90
2017-09-27T17:53:49.518Z,99.90
2017-09-27T17:56:17.035Z,99.90
2017-09-27T17:58:45.334Z,99.90
2017-09-27T18:01:12.841Z,99.90
2017-09-27T18:03:40.317Z,99.90
2017-09-27T18:06:14.346Z,99.90
2017-09-27T18:08:48.220Z,99.90
2017-09-27T18:24:41.012Z,99.90
2017-09-27T18:27:08.541Z,99.90
2017-09-27T18:29:36.838Z,99.90
2017-09-27T18:32:04.383Z,99.90
2017-09-27T18:34:32.638Z,99.90
2017-09-27T18:37:00.113Z,99.90
2017-09-27T18:39:28.391Z,99.90
2017-09-27T18:41:56.637Z,99.90
2017-09-27T18:44:24.117Z,99.90
2017-09-27T18:46:52.401Z,99.90
2017-09-27T18:49:20.649Z,99.90
2017-09-27T18:51:48.126Z,99.90
2017-09-27T18:54:16.395Z,99.90
2017-09-27T18:56:44.641Z,99.90
2017-09-27T18:59:12.121Z,99.90
2017-09-27T19:01:39.622Z,99.90
2017-09-27T19:04:07.110Z,99.90
2017-09-27T19:06:34.586Z,99.90
2017-09-27T19:09:02.085Z,99.90
2017-09-27T19:11:29.566Z,99.90
2017-09-27T19:13:57.049Z,99.90
2017-09-27T19:16:24.553Z,99.90
2017-09-27T19:18:52.034Z,99.90
2017-09-27T19:21:19.517Z,99.90
2017-09-27T19:23:47.016Z,99.90
2017-09-27T19:26:15.262Z,99.90
2017-09-27T19:28:42.745Z,99.90
2017-09-27T19:31:11.014Z,99.90
2017-09-27T19:33:39.253Z,99.90
2017-09-27T19:36:06.741Z,99.90
2017-09-27T19:38:35.009Z,99.90
2017-09-27T19:41:02.482Z,99.90
2017-09-27T19:43:30.730Z,99.90
2017-09-27T19:45:58.222Z,99.90
2017-09-27T20:18:38.873Z,99.90
2017-09-27T20:21:07.119Z,99.90
2017-09-27T20:23:34.850Z,99.90
2017-09-27T20:26:02.354Z,99.90
2017-09-27T20:28:29.829Z,99.90
2017-09-27T20:30:58.080Z,99.90
2017-09-27T20:33:25.578Z,99.90
2017-09-27T20:35:53.074Z,99.90
2017-09-27T20:38:20.557Z,99.90
2017-09-27T20:40:48.063Z,99.90
2017-09-27T20:43:15.546Z,99.90
2017-09-27T20:45:43.025Z,99.90
2017-09-27T20:48:10.535Z,99.90
2017-09-27T20:50:38.018Z,99.90
2017-09-27T20:53:05.494Z,99.90
2017-09-27T20:55:32.997Z,99.90
2017-09-27T20:58:00.477Z,99.90
2017-09-27T21:00:27.957Z,99.90
2017-09-27T21:02:55.693Z,99.90
2017-09-27T21:05:23.178Z,99.90
2017-09-27T21:07:50.661Z,99.90
2017-09-27T21:10:18.932Z,99.90
2017-09-27T21:12:46.408Z,99.90
2017-09-27T21:15:14.657Z,99.90
2017-09-27T21:17:42.163Z,99.90
2017-09-27T21:20:09.642Z,99.90
2017-09-27T21:22:37.118Z,99.90
2017-09-27T21:25:04.613Z,99.90
2017-09-27T21:27:32.853Z,99.90
2017-09-27T21:30:00.333Z,99.90
2017-09-27T21:32:28.596Z,99.90
2017-09-27T21:34:56.313Z,99.90
2017-09-27T21:37:23.789Z,99.90
2017-09-27T21:39:51.329Z,99.90
2017-09-27T21:42:18.801Z,99.90
2017-09-27T21:44:46.281Z,99.90
2017-09-27T21:47:13.782Z,99.90
2017-09-27T21:49:41.265Z,99.90
2017-09-27T21:52:09.026Z,99.90
2017-09-27T21:54:36.545Z,99.90
2017-09-27T21:57:04.789Z,99.90
2017-09-27T21:59:32.269Z,99.90
2017-09-27T22:01:59.786Z,99.90
2017-09-27T22:04:28.029Z,99.90
2017-09-27T22:06:55.725Z,99.90
2017-09-27T22:09:23.389Z,99.90
2017-09-27T22:11:50.864Z,99.90
2017-09-27T22:14:18.350Z,99.90
2017-09-27T22:16:46.612Z,99.90
2017-09-27T22:19:15.222Z,99.90
2017-09-27T22:21:42.709Z,99.90
2017-09-27T22:24:10.465Z,99.90
2017-09-27T22:26:37.940Z,99.90
2017-09-27T22:29:05.413Z,99.90
2017-09-27T22:31:32.914Z,99.90
2017-09-27T22:34:00.466Z,99.90
2017-09-27T22:36:27.943Z,99.90
2017-09-27T22:38:55.458Z,99.90
2017-09-27T22:41:22.928Z,99.90
2017-09-27T22:43:51.173Z,99.90
2017-09-27T22:46:18.673Z,99.90
2017-09-27T22:48:46.148Z,99.90
2017-09-27T22:51:13.625Z,99.90
2017-09-27T22:53:41.123Z,99.90
2017-09-27T22:56:09.365Z,99.90
2017-09-27T22:58:36.840Z,99.90
2017-09-27T23:01:04.337Z,99.90
2017-09-27T23:03:31.818Z,99.90
2017-09-27T23:05:59.301Z,99.90
2017-09-27T23:08:26.809Z,99.90
2017-09-27T23:10:54.285Z,99.90
2017-09-27T23:13:21.761Z,99.90
2017-09-27T23:15:49.253Z,99.90
2017-09-27T23:18:16.810Z,99.90
2017-09-27T23:20:44.284Z,99.90
2017-09-27T23:23:12.551Z,99.90
2017-09-27T23:25:40.793Z,99.90
2017-09-27T23:28:08.274Z,99.90
2017-09-27T23:30:35.774Z,99.90
2017-09-27T23:33:03.250Z,99.90
2017-09-27T23:35:30.949Z,99.90
2017-09-27T23:37:58.446Z,99.90
2017-09-27T23:40:25.921Z,99.90
2017-09-27T23:42:53.400Z,99.90
2017-09-27T23:45:20.900Z,99.90
2017-09-27T23:47:49.146Z,99.90
2017-09-27T23:50:16.656Z,99.90
2017-09-27T23:52:44.197Z,99.90
2017-09-27T23:55:11.706Z,99.90
2017-09-27T23:57:39.186Z,99.90
